Time;durP1;ratioP1;P1;durP2;ratioP2;P2;SDS_P1;SDS_P2;PMS_P1;PMS_P2;Temp;Humidity;BMP_temperature;BMP_pressure;BME280_temperature;BME280_humidity;BME280_pressure;Samples;Min_cycle;Max_cycle;Signal;HPM_P1;HPM_P2
2022/07/04 00:02:01;;;;;;;;;;;16.20;99.90;;;;;;5016131;28;20386;-54
2022/07/04 00:04:26;;;;;;;;;;;16.20;99.90;;;;;;5016077;28;19905;-56
2022/07/04 00:06:52;;;;;;;;;;;16.20;99.90;;;;;;5016531;28;19905;-57
2022/07/04 00:09:18;;;;;;;;;;;16.10;99.90;;;;;;5015063;28;19924;-57
2022/07/04 00:11:43;;;;;;;;;;;16.10;99.90;;;;;;5015819;28;20416;-54
2022/07/04 00:14:09;;;;;;;;;;;16.10;99.90;;;;;;5015643;28;19980;-57
2022/07/04 00:16:34;;;;;;;;;;;16.00;99.90;;;;;;5015927;28;20396;-58
2022/07/04 00:19:00;;;;;;;;;;;16.00;99.90;;;;;;5015594;28;19913;-57
2022/07/04 00:21:25;;;;;;;;;;;16.00;99.90;;;;;;5015440;28;19955;-58
2022/07/04 00:23:51;;;;;;;;;;;16.00;99.90;;;;;;5013604;28;19913;-56
2022/07/04 00:26:16;;;;;;;;;;;15.90;99.90;;;;;;5014721;28;19971;-58
2022/07/04 00:28:42;;;;;;;;;;;16.00;99.90;;;;;;5015698;28;20004;-56
2022/07/04 00:31:08;;;;;;;;;;;16.00;99.90;;;;;;5043888;22;19921;-69
2022/07/04 00:33:33;;;;;;;;;;;16.00;99.90;;;;;;5028010;28;19959;-69
2022/07/04 00:35:59;;;;;;;;;;;15.90;99.90;;;;;;5023836;28;19921;-69
2022/07/04 00:38:24;;;;;;;;;;;15.90;99.90;;;;;;5016239;28;20002;-70
2022/07/04 00:40:50;;;;;;;;;;;15.90;99.90;;;;;;5029006;28;19909;-70
2022/07/04 00:43:25;;;;;;;;;;;15.80;99.90;;;;;;5023229;28;19905;-70
2022/07/04 00:45:51;;;;;;;;;;;15.80;99.90;;;;;;5025047;28;19936;-71
2022/07/04 00:48:16;;;;;;;;;;;15.70;99.90;;;;;;5031418;28;19905;-71
2022/07/04 00:50:46;;;;;;;;;;;15.70;99.90;;;;;;5029006;28;19951;-70
2022/07/04 00:53:12;;;;;;;;;;;15.70;99.90;;;;;;5025832;28;20012;-70
2022/07/04 00:55:38;;;;;;;;;;;15.70;99.90;;;;;;5025780;28;20321;-70
2022/07/04 00:58:03;;;;;;;;;;;15.60;99.90;;;;;;5023457;28;19912;-70
2022/07/04 01:00:30;;;;;;;;;;;15.60;99.90;;;;;;5019867;28;19909;-70
2022/07/04 01:02:55;;;;;;;;;;;15.50;99.90;;;;;;5024683;28;19931;-70
2022/07/04 01:05:21;;;;;;;;;;;15.50;99.90;;;;;;5025678;28;20328;-70
2022/07/04 01:07:46;;;;;;;;;;;15.50;99.90;;;;;;5020960;28;19977;-70
2022/07/04 01:10:12;;;;;;;;;;;15.60;99.90;;;;;;5033147;28;20091;-70
2022/07/04 01:12:38;;;;;;;;;;;15.40;99.90;;;;;;5024631;28;20000;-70
2022/07/04 01:15:04;;;;;;;;;;;15.40;99.90;;;;;;5034906;28;20002;-70
2022/07/04 01:17:29;;;;;;;;;;;15.40;99.90;;;;;;5032923;28;19905;-70
2022/07/04 01:19:55;;;;;;;;;;;15.40;99.90;;;;;;5026251;28;19905;-70
2022/07/04 01:22:22;;;;;;;;;;;15.40;99.90;;;;;;5025758;28;19912;-70
2022/07/04 01:24:48;;;;;;;;;;;15.40;99.90;;;;;;5019223;28;19955;-70
2022/07/04 01:27:14;;;;;;;;;;;15.40;99.90;;;;;;5025228;28;20325;-70
2022/07/04 01:29:39;;;;;;;;;;;15.40;99.90;;;;;;5024274;28;19905;-69
2022/07/04 01:32:05;;;;;;;;;;;15.30;99.90;;;;;;5023300;28;20382;-70
2022/07/04 01:34:31;;;;;;;;;;;15.30;99.90;;;;;;5022988;28;19963;-70
2022/07/04 01:36:58;;;;;;;;;;;15.30;99.90;;;;;;5020117;28;19905;-70
2022/07/04 01:39:23;;;;;;;;;;;15.20;99.90;;;;;;5032087;28;19940;-70
2022/07/04 01:41:49;;;;;;;;;;;15.30;99.90;;;;;;5026589;28;19913;-70
2022/07/04 01:44:14;;;;;;;;;;;15.20;99.90;;;;;;5028996;28;20042;-70
2022/07/04 01:46:40;;;;;;;;;;;15.20;99.90;;;;;;5029917;28;20401;-71
2022/07/04 01:49:05;;;;;;;;;;;15.10;99.90;;;;;;5015992;28;19905;-71
2022/07/04 01:51:31;;;;;;;;;;;15.00;99.90;;;;;;5020950;28;20337;-71
2022/07/04 01:53:56;;;;;;;;;;;15.10;99.90;;;;;;5024790;28;19940;-70
2022/07/04 01:56:21;;;;;;;;;;;15.10;99.90;;;;;;5016428;28;19925;-70
2022/07/04 01:58:47;;;;;;;;;;;15.10;99.90;;;;;;5023266;28;19953;-70
2022/07/04 02:01:31;;;;;;;;;;;15.00;99.90;;;;;;5031608;28;19911;-70
2022/07/04 02:03:57;;;;;;;;;;;15.10;99.90;;;;;;5016317;28;19905;-70
2022/07/04 02:06:22;;;;;;;;;;;15.10;99.90;;;;;;5034302;28;19996;-70
2022/07/04 02:13:00;;;;;;;;;;;15.10;99.90;;;;;;5022708;28;19912;-70
2022/07/04 02:14:17;;;;;;;;;;;15.00;99.90;;;;;;5010363;28;20377;-70
2022/07/04 02:16:43;;;;;;;;;;;15.00;99.90;;;;;;5020661;28;19905;-70
2022/07/04 02:19:08;;;;;;;;;;;15.00;99.90;;;;;;5023008;28;19916;-70
2022/07/04 02:21:34;;;;;;;;;;;15.00;99.90;;;;;;5022142;28;19916;-70
2022/07/04 02:23:59;;;;;;;;;;;14.90;99.90;;;;;;5014680;28;20343;-70
2022/07/04 02:26:25;;;;;;;;;;;14.90;99.90;;;;;;5013648;28;19905;-69
2022/07/04 02:28:51;;;;;;;;;;;15.00;99.90;;;;;;5008923;28;19906;-70
2022/07/04 02:31:16;;;;;;;;;;;15.00;99.90;;;;;;5013882;28;20309;-70
2022/07/04 02:33:42;;;;;;;;;;;14.90;99.90;;;;;;5014736;28;19905;-69
2022/07/04 02:36:07;;;;;;;;;;;15.00;99.90;;;;;;5015747;28;19917;-69
2022/07/04 02:38:33;;;;;;;;;;;15.00;99.90;;;;;;5014491;28;19949;-70
2022/07/04 02:40:58;;;;;;;;;;;15.00;99.90;;;;;;5014004;28;19909;-70
2022/07/04 02:43:24;;;;;;;;;;;15.00;99.90;;;;;;5020368;28;19905;-70
2022/07/04 02:45:49;;;;;;;;;;;15.00;99.90;;;;;;5016980;28;19905;-69
2022/07/04 02:48:15;;;;;;;;;;;15.00;99.90;;;;;;5013832;28;19912;-69
2022/07/04 02:50:40;;;;;;;;;;;15.00;99.90;;;;;;5014617;28;19905;-69
2022/07/04 02:53:06;;;;;;;;;;;15.00;99.90;;;;;;5013918;28;19906;-69
2022/07/04 02:55:31;;;;;;;;;;;15.10;99.90;;;;;;5014229;28;19910;-69
2022/07/04 02:57:57;;;;;;;;;;;15.10;99.90;;;;;;5014072;28;20363;-70
2022/07/04 03:00:22;;;;;;;;;;;15.00;99.90;;;;;;5013844;28;19951;-70
2022/07/04 03:02:47;;;;;;;;;;;15.00;99.90;;;;;;5013921;28;19905;-70
2022/07/04 03:05:13;;;;;;;;;;;15.00;99.90;;;;;;5013697;28;20422;-69
2022/07/04 03:07:39;;;;;;;;;;;15.00;99.90;;;;;;5012439;28;19909;-70
2022/07/04 03:10:04;;;;;;;;;;;15.00;99.90;;;;;;5018144;28;19905;-69
2022/07/04 03:12:30;;;;;;;;;;;15.00;99.90;;;;;;5014143;28;19928;-69
2022/07/04 03:14:55;;;;;;;;;;;15.00;99.90;;;;;;5013532;28;19916;-70
2022/07/04 03:17:21;;;;;;;;;;;15.00;99.90;;;;;;5013703;28;19912;-70
2022/07/04 03:19:47;;;;;;;;;;;15.00;99.90;;;;;;5013978;28;19929;-70
2022/07/04 03:22:12;;;;;;;;;;;15.00;99.90;;;;;;5014455;28;19996;-70
2022/07/04 03:24:37;;;;;;;;;;;15.00;99.90;;;;;;5013572;28;20008;-70
2022/07/04 03:27:03;;;;;;;;;;;14.90;99.90;;;;;;5013580;28;19906;-70
2022/07/04 03:29:29;;;;;;;;;;;14.90;99.90;;;;;;5013389;28;19909;-70
2022/07/04 03:31:55;;;;;;;;;;;14.90;99.90;;;;;;5013324;28;19967;-70
2022/07/04 03:34:20;;;;;;;;;;;14.90;99.90;;;;;;5013735;28;19909;-70
2022/07/04 03:36:46;;;;;;;;;;;14.80;99.90;;;;;;5013600;28;19932;-70
2022/07/04 03:39:11;;;;;;;;;;;14.80;99.90;;;;;;5013315;28;19905;-69
2022/07/04 03:41:37;;;;;;;;;;;14.90;99.90;;;;;;5013311;28;19909;-70
2022/07/04 03:44:02;;;;;;;;;;;14.80;99.90;;;;;;5015089;28;20355;-70
2022/07/04 03:46:28;;;;;;;;;;;14.70;99.90;;;;;;5016839;28;19905;-70
2022/07/04 03:48:54;;;;;;;;;;;14.80;99.90;;;;;;5017254;28;19909;-70
2022/07/04 03:51:20;;;;;;;;;;;14.80;99.90;;;;;;5017062;28;20265;-70
2022/07/04 03:53:45;;;;;;;;;;;14.80;99.90;;;;;;5017406;28;19912;-70
2022/07/04 03:56:11;;;;;;;;;;;14.80;99.90;;;;;;5017062;28;20368;-69
2022/07/04 03:58:36;;;;;;;;;;;14.80;99.90;;;;;;5017816;28;19905;-70
2022/07/04 04:01:02;;;;;;;;;;;14.80;99.90;;;;;;5015993;28;19951;-70
2022/07/04 04:06:12;;;;;;;;;;;14.80;99.90;;;;;;5016806;28;19912;-71
2022/07/04 04:08:37;;;;;;;;;;;14.80;99.90;;;;;;5016953;28;19905;-71
2022/07/04 04:11:03;;;;;;;;;;;14.80;99.90;;;;;;5017127;28;19905;-71
2022/07/04 04:13:28;;;;;;;;;;;14.80;99.90;;;;;;5016810;28;19916;-69
2022/07/04 04:15:54;;;;;;;;;;;14.80;99.90;;;;;;5016833;28;19917;-71
2022/07/04 04:18:19;;;;;;;;;;;14.80;99.90;;;;;;5017949;28;20366;-70
2022/07/04 04:20:45;;;;;;;;;;;14.80;99.90;;;;;;5021454;28;19912;-70
2022/07/04 04:23:10;;;;;;;;;;;14.90;99.90;;;;;;5017087;28;19913;-69
2022/07/04 04:25:36;;;;;;;;;;;14.90;99.90;;;;;;5016802;28;19960;-71
2022/07/04 04:28:01;;;;;;;;;;;14.90;99.90;;;;;;5017635;28;19905;-70
2022/07/04 04:30:27;;;;;;;;;;;15.00;99.90;;;;;;5016214;28;20357;-70
2022/07/04 04:32:52;;;;;;;;;;;15.00;99.90;;;;;;5016952;28;19912;-70
2022/07/04 04:35:19;;;;;;;;;;;15.00;99.90;;;;;;5016156;28;19967;-69
2022/07/04 04:37:44;;;;;;;;;;;15.00;99.90;;;;;;5016373;28;19909;-71
2022/07/04 04:40:10;;;;;;;;;;;15.10;99.90;;;;;;5015970;28;20352;-70
2022/07/04 04:42:37;;;;;;;;;;;15.10;99.90;;;;;;5016141;28;20022;-70
2022/07/04 04:45:03;;;;;;;;;;;15.20;99.90;;;;;;5016440;28;19912;-70
2022/07/04 04:47:29;;;;;;;;;;;15.30;99.90;;;;;;5014677;28;19909;-71
2022/07/04 04:49:54;;;;;;;;;;;15.30;99.90;;;;;;5016219;28;19905;-71
2022/07/04 04:52:20;;;;;;;;;;;15.30;99.90;;;;;;5016182;28;19905;-71
2022/07/04 04:54:45;;;;;;;;;;;15.40;99.90;;;;;;5018498;28;19909;-71
2022/07/04 04:57:11;;;;;;;;;;;15.40;99.90;;;;;;5017006;28;19927;-71
2022/07/04 04:59:37;;;;;;;;;;;15.40;99.90;;;;;;5016562;28;19906;-71
2022/07/04 05:02:02;;;;;;;;;;;15.50;99.90;;;;;;5015778;28;19912;-71
2022/07/04 05:04:28;;;;;;;;;;;15.70;99.90;;;;;;5015944;28;20389;-71
2022/07/04 05:06:53;;;;;;;;;;;15.70;99.90;;;;;;5015916;28;19906;-71
2022/07/04 05:09:19;;;;;;;;;;;15.80;99.90;;;;;;5015557;28;19955;-70
2022/07/04 05:11:45;;;;;;;;;;;15.90;99.90;;;;;;5015923;28;19959;-70
2022/07/04 05:14:10;;;;;;;;;;;16.00;99.90;;;;;;5014435;28;19912;-70
2022/07/04 05:16:36;;;;;;;;;;;16.10;99.90;;;;;;5018727;28;19906;-70
2022/07/04 05:19:01;;;;;;;;;;;16.20;99.90;;;;;;5022949;28;19929;-70
2022/07/04 05:21:28;;;;;;;;;;;16.30;99.90;;;;;;5023348;28;19905;-70
2022/07/04 05:23:54;;;;;;;;;;;16.40;99.90;;;;;;5023031;28;20264;-70
2022/07/04 05:26:19;;;;;;;;;;;16.40;99.90;;;;;;5022241;28;19905;-70
2022/07/04 05:28:45;;;;;;;;;;;16.40;99.90;;;;;;5018763;28;19906;-70
2022/07/04 05:31:10;;;;;;;;;;;16.50;99.90;;;;;;5019349;28;20378;-70
2022/07/04 05:33:35;;;;;;;;;;;16.50;99.90;;;;;;5025037;28;19960;-70
2022/07/04 05:36:01;;;;;;;;;;;16.60;99.90;;;;;;5017759;28;20313;-70
2022/07/04 05:38:26;;;;;;;;;;;16.70;99.90;;;;;;5015925;28;19905;-70
2022/07/04 05:40:52;;;;;;;;;;;16.80;99.90;;;;;;5015391;28;20322;-70
2022/07/04 05:43:17;;;;;;;;;;;16.90;99.90;;;;;;5015058;28;19905;-70
2022/07/04 05:45:43;;;;;;;;;;;17.00;99.90;;;;;;5015030;28;19944;-70
2022/07/04 05:48:08;;;;;;;;;;;17.10;99.90;;;;;;5015039;28;20366;-70
2022/07/04 05:50:35;;;;;;;;;;;17.20;99.90;;;;;;5014847;28;19906;-70
2022/07/04 05:53:00;;;;;;;;;;;17.20;99.90;;;;;;5013544;28;19912;-70
2022/07/04 05:55:26;;;;;;;;;;;17.20;99.90;;;;;;5015221;28;19909;-70
2022/07/04 05:57:51;;;;;;;;;;;17.30;99.90;;;;;;5014618;28;19913;-70
2022/07/04 06:00:17;;;;;;;;;;;17.50;99.90;;;;;;5014705;28;20290;-71
2022/07/04 06:02:42;;;;;;;;;;;17.50;99.90;;;;;;5015066;28;20287;-71
2022/07/04 06:05:08;;;;;;;;;;;17.60;99.90;;;;;;5013704;28;19932;-71
2022/07/04 06:07:33;;;;;;;;;;;17.60;99.90;;;;;;5014861;28;19913;-71
2022/07/04 06:09:59;;;;;;;;;;;17.70;99.90;;;;;;5013219;28;19912;-71
2022/07/04 06:12:24;;;;;;;;;;;17.80;99.90;;;;;;5014483;28;19909;-71
2022/07/04 06:14:50;;;;;;;;;;;18.00;99.90;;;;;;5014681;28;19909;-71
2022/07/04 06:17:15;;;;;;;;;;;17.90;99.90;;;;;;5014187;28;19936;-71
2022/07/04 06:19:41;;;;;;;;;;;17.90;99.90;;;;;;5014304;28;19909;-70
2022/07/04 06:22:06;;;;;;;;;;;17.90;99.90;;;;;;5014228;28;19912;-71
2022/07/04 06:24:32;;;;;;;;;;;17.90;99.90;;;;;;5014017;28;19963;-71
2022/07/04 06:26:57;;;;;;;;;;;18.00;99.90;;;;;;5014493;28;19932;-70
2022/07/04 06:29:23;;;;;;;;;;;18.10;99.90;;;;;;5013644;28;19906;-71
2022/07/04 06:31:48;;;;;;;;;;;18.30;99.90;;;;;;5058158;22;20417;-70
2022/07/04 06:36:58;;;;;;;;;;;18.40;99.90;;;;;;5037091;28;19912;-72
2022/07/04 06:39:24;;;;;;;;;;;18.50;99.90;;;;;;5036765;28;19906;-71
2022/07/04 06:41:49;;;;;;;;;;;18.60;99.90;;;;;;5036235;28;19976;-71
2022/07/04 06:44:15;;;;;;;;;;;18.60;99.90;;;;;;5036664;28;19909;-71
2022/07/04 06:46:40;;;;;;;;;;;18.70;99.90;;;;;;5036242;28;19932;-72
2022/07/04 06:49:06;;;;;;;;;;;18.60;99.90;;;;;;5035432;28;19905;-71
2022/07/04 06:51:31;;;;;;;;;;;18.60;99.90;;;;;;5036604;28;20011;-71
2022/07/04 06:53:57;;;;;;;;;;;18.70;99.90;;;;;;5033599;28;19909;-70
2022/07/04 06:56:22;;;;;;;;;;;18.80;99.90;;;;;;5031091;28;20015;-70
2022/07/04 06:58:48;;;;;;;;;;;18.90;99.90;;;;;;5029003;28;20011;-70
2022/07/04 07:01:17;;;;;;;;;;;19.00;99.90;;;;;;5026885;28;19916;-71
2022/07/04 07:03:42;;;;;;;;;;;19.10;99.90;;;;;;5031986;28;19916;-70
2022/07/04 07:06:08;;;;;;;;;;;19.10;99.90;;;;;;5031889;28;19906;-71
2022/07/04 07:08:33;;;;;;;;;;;19.10;99.90;;;;;;5027104;28;20008;-71
2022/07/04 07:11:12;;;;;;;;;;;19.20;99.90;;;;;;5035415;28;19963;-70
2022/07/04 07:13:45;;;;;;;;;;;19.10;99.90;;;;;;5035793;28;20366;-71
2022/07/04 07:16:11;;;;;;;;;;;19.20;99.90;;;;;;5033500;28;19913;-71
2022/07/04 07:18:37;;;;;;;;;;;19.10;99.90;;;;;;5034054;28;19909;-71
2022/07/04 07:21:02;;;;;;;;;;;19.20;99.90;;;;;;5037503;28;19912;-71
2022/07/04 07:23:28;;;;;;;;;;;19.20;99.90;;;;;;5036353;28;19905;-71
2022/07/04 07:25:54;;;;;;;;;;;19.20;99.90;;;;;;5037022;28;19905;-72
2022/07/04 07:28:20;;;;;;;;;;;19.20;99.90;;;;;;5039426;28;19909;-72
2022/07/04 07:30:51;;;;;;;;;;;19.30;99.90;;;;;;5038956;28;19987;-72
2022/07/04 07:33:16;;;;;;;;;;;19.30;99.90;;;;;;5038279;28;19909;-72
2022/07/04 07:35:42;;;;;;;;;;;19.50;99.90;;;;;;5040135;28;20366;-73
2022/07/04 07:38:08;;;;;;;;;;;19.60;99.90;;;;;;5037222;28;20250;-72
2022/07/04 07:40:33;;;;;;;;;;;19.80;99.90;;;;;;5041049;28;19959;-72
2022/07/04 07:42:59;;;;;;;;;;;19.80;99.90;;;;;;5040170;28;19909;-72
2022/07/04 07:45:24;;;;;;;;;;;19.90;99.90;;;;;;5035699;28;19905;-72
2022/07/04 07:47:50;;;;;;;;;;;20.10;99.90;;;;;;5040539;28;19905;-72
2022/07/04 07:50:16;;;;;;;;;;;20.10;99.90;;;;;;5038659;28;19905;-71
2022/07/04 07:52:41;;;;;;;;;;;20.10;99.90;;;;;;5040470;28;19957;-71
2022/07/04 07:55:07;;;;;;;;;;;20.00;99.90;;;;;;5041795;28;19931;-72
2022/07/04 07:57:32;;;;;;;;;;;20.20;99.90;;;;;;5041236;28;20505;-71
2022/07/04 07:59:58;;;;;;;;;;;20.20;99.90;;;;;;5041862;28;20313;-71
2022/07/04 08:04:33;;;;;;;;;;;20.20;99.90;;;;;;5039319;28;19909;-71
2022/07/04 08:05:10;;;;;;;;;;;20.30;99.90;;;;;;5040970;28;19921;-72
2022/07/04 08:07:35;;;;;;;;;;;20.50;99.90;;;;;;5041305;28;19968;-72
2022/07/04 08:10:01;;;;;;;;;;;20.50;99.90;;;;;;5040568;28;20381;-71
2022/07/04 08:12:26;;;;;;;;;;;20.50;99.90;;;;;;5040731;28;19945;-71
2022/07/04 08:14:52;;;;;;;;;;;20.50;99.90;;;;;;5037987;28;19935;-71
2022/07/04 08:17:17;;;;;;;;;;;20.50;99.90;;;;;;5040515;28;19905;-71
2022/07/04 08:19:43;;;;;;;;;;;20.60;99.90;;;;;;5039790;28;19996;-70
2022/07/04 08:22:08;;;;;;;;;;;20.60;99.90;;;;;;5040551;28;20039;-71
2022/07/04 08:24:34;;;;;;;;;;;20.50;99.90;;;;;;5039551;28;19909;-71
2022/07/04 08:26:59;;;;;;;;;;;20.50;99.90;;;;;;5040284;28;19912;-71
2022/07/04 08:29:27;;;;;;;;;;;20.40;99.90;;;;;;5040755;28;19912;-71
2022/07/04 08:31:53;;;;;;;;;;;20.50;99.90;;;;;;5039168;28;19911;-71
2022/07/04 08:34:18;;;;;;;;;;;20.60;99.90;;;;;;5042146;28;19941;-71
2022/07/04 08:36:44;;;;;;;;;;;20.70;99.90;;;;;;5044204;28;19905;-71
2022/07/04 08:39:09;;;;;;;;;;;21.00;99.90;;;;;;5042439;28;19916;-71
2022/07/04 08:41:39;;;;;;;;;;;21.30;99.90;;;;;;5043040;28;19905;-71
2022/07/04 08:44:06;;;;;;;;;;;21.40;99.90;;;;;;5040501;28;19909;-71
2022/07/04 08:46:33;;;;;;;;;;;21.50;99.90;;;;;;5041134;28;20000;-71
2022/07/04 08:49:00;;;;;;;;;;;21.40;99.90;;;;;;5040712;28;19912;-70
2022/07/04 08:51:34;;;;;;;;;;;21.40;99.90;;;;;;5042152;28;19905;-71
2022/07/04 08:58:25;;;;;;;;;;;21.30;99.90;;;;;;5048186;28;19908;-70
2022/07/04 08:59:30;;;;;;;;;;;21.80;99.90;;;;;;5040044;28;20353;-71
2022/07/04 09:01:56;;;;;;;;;;;22.10;99.90;;;;;;5042589;28;19905;-71
2022/07/04 09:04:25;;;;;;;;;;;22.10;99.90;;;;;;5046143;28;19941;-71
2022/07/04 09:06:50;;;;;;;;;;;22.30;99.90;;;;;;5045497;28;19905;-71
2022/07/04 09:09:22;;;;;;;;;;;22.50;99.90;;;;;;5043411;28;20397;-71
2022/07/04 09:11:51;;;;;;;;;;;22.60;99.90;;;;;;5048560;28;20362;-71
2022/07/04 09:14:16;;;;;;;;;;;22.70;99.90;;;;;;5045540;28;19952;-71
2022/07/04 09:16:48;;;;;;;;;;;22.80;99.90;;;;;;5040401;28;19909;-71
2022/07/04 09:19:21;;;;;;;;;;;22.90;99.90;;;;;;5043631;28;19905;-71
2022/07/04 09:21:48;;;;;;;;;;;23.10;99.90;;;;;;5041624;28;20354;-72
2022/07/04 09:24:14;;;;;;;;;;;23.10;99.90;;;;;;5040464;28;20029;-71
2022/07/04 09:26:40;;;;;;;;;;;23.00;99.90;;;;;;5043570;28;19913;-70
2022/07/04 09:29:05;;;;;;;;;;;23.00;99.90;;;;;;5041464;28;19905;-70
2022/07/04 09:31:31;;;;;;;;;;;22.90;99.90;;;;;;5038579;28;19925;-71
2022/07/04 09:34:03;;;;;;;;;;;22.80;99.90;;;;;;5039976;28;19940;-70
2022/07/04 09:36:30;;;;;;;;;;;22.80;99.90;;;;;;5041472;28;20066;-71
2022/07/04 09:39:12;;;;;;;;;;;22.70;99.90;;;;;;5040338;28;19911;-70
2022/07/04 09:42:04;;;;;;;;;;;22.70;99.90;;;;;;5032621;28;20457;-71
2022/07/04 09:44:36;;;;;;;;;;;23.00;99.90;;;;;;5035858;28;19909;-70
2022/07/04 09:47:19;;;;;;;;;;;23.00;99.90;;;;;;5039230;28;19929;-70
2022/07/04 09:49:57;;;;;;;;;;;23.00;99.90;;;;;;5038342;28;19905;-70
2022/07/04 09:52:23;;;;;;;;;;;22.60;99.90;;;;;;5040329;28;19973;-71
2022/07/04 09:54:48;;;;;;;;;;;22.40;99.90;;;;;;5041465;28;19912;-70
2022/07/04 09:57:21;;;;;;;;;;;22.30;99.90;;;;;;5042279;28;19905;-71
2022/07/04 09:59:46;;;;;;;;;;;22.50;99.90;;;;;;5039358;28;20008;-71
2022/07/04 10:02:14;;;;;;;;;;;22.80;99.90;;;;;;5044338;28;19905;-71
2022/07/04 10:04:54;;;;;;;;;;;22.70;99.90;;;;;;5043618;28;19988;-71
2022/07/04 10:07:36;;;;;;;;;;;22.70;99.90;;;;;;5030793;28;19971;-71
2022/07/04 10:10:21;;;;;;;;;;;22.90;99.90;;;;;;5027151;28;20301;-72
2022/07/04 10:12:48;;;;;;;;;;;23.10;99.90;;;;;;5019058;28;19906;-71
2022/07/04 10:15:13;;;;;;;;;;;23.20;99.90;;;;;;5021075;28;20018;-72
2022/07/04 10:17:40;;;;;;;;;;;23.20;99.90;;;;;;5018813;28;20389;-72
2022/07/04 10:20:06;;;;;;;;;;;23.10;99.90;;;;;;5020420;28;19956;-72
2022/07/04 10:22:31;;;;;;;;;;;23.00;99.90;;;;;;5028455;28;19912;-72
2022/07/04 10:24:57;;;;;;;;;;;23.00;99.90;;;;;;5005208;28;19909;-73
2022/07/04 10:27:23;;;;;;;;;;;23.00;99.90;;;;;;5006556;28;20381;-72
2022/07/04 10:29:49;;;;;;;;;;;22.90;99.90;;;;;;5008560;28;20356;-72
2022/07/04 10:32:15;;;;;;;;;;;22.90;99.90;;;;;;5014024;28;19905;-73
2022/07/04 10:34:41;;;;;;;;;;;22.80;99.90;;;;;;5015015;28;20012;-72
2022/07/04 10:37:07;;;;;;;;;;;22.70;99.90;;;;;;5017725;28;19944;-73
2022/07/04 10:39:33;;;;;;;;;;;22.90;99.90;;;;;;5022446;28;19920;-73
2022/07/04 10:41:59;;;;;;;;;;;23.00;99.90;;;;;;5028147;28;19999;-72
2022/07/04 10:44:26;;;;;;;;;;;23.00;99.90;;;;;;5027091;28;19996;-72
2022/07/04 10:46:53;;;;;;;;;;;23.10;99.90;;;;;;5026113;28;19939;-73
2022/07/04 10:49:20;;;;;;;;;;;23.20;99.90;;;;;;5015120;28;19906;-72
2022/07/04 10:51:49;;;;;;;;;;;23.10;99.90;;;;;;5035354;28;19909;-73
2022/07/04 10:54:16;;;;;;;;;;;23.20;99.90;;;;;;5022357;28;19909;-72
2022/07/04 10:56:43;;;;;;;;;;;23.20;99.90;;;;;;5013604;28;20289;-72
2022/07/04 10:59:13;;;;;;;;;;;23.30;99.90;;;;;;5016512;28;20251;-71
2022/07/04 11:01:43;;;;;;;;;;;23.20;99.90;;;;;;5015457;28;20274;-71
2022/07/04 11:04:10;;;;;;;;;;;23.20;99.90;;;;;;5017278;28;19917;-72
2022/07/04 11:06:36;;;;;;;;;;;23.30;99.90;;;;;;5018191;28;19912;-72
2022/07/04 11:09:20;;;;;;;;;;;23.10;99.90;;;;;;5020555;28;19912;-72
2022/07/04 11:11:59;;;;;;;;;;;23.10;99.90;;;;;;5026775;28;19905;-71
2022/07/04 11:14:48;;;;;;;;;;;23.00;99.90;;;;;;5021490;28;19916;-72
2022/07/04 11:17:14;;;;;;;;;;;23.00;99.90;;;;;;5024154;28;19912;-72
2022/07/04 11:19:41;;;;;;;;;;;23.10;99.90;;;;;;5018269;28;19905;-72
2022/07/04 11:22:08;;;;;;;;;;;23.20;99.90;;;;;;5018005;28;19920;-72
2022/07/04 11:24:34;;;;;;;;;;;23.40;99.90;;;;;;5027249;28;19905;-72
2022/07/04 11:27:00;;;;;;;;;;;23.40;99.90;;;;;;5036909;28;19905;-72
2022/07/04 11:29:26;;;;;;;;;;;23.50;99.90;;;;;;5035633;28;19905;-72
2022/07/04 11:31:52;;;;;;;;;;;23.40;99.90;;;;;;5036598;28;19912;-72
2022/07/04 11:34:18;;;;;;;;;;;23.30;99.90;;;;;;5034240;28;19913;-72
2022/07/04 11:36:44;;;;;;;;;;;23.30;99.90;;;;;;5035541;28;19968;-72
2022/07/04 11:39:12;;;;;;;;;;;23.20;99.90;;;;;;5036416;28;19912;-72
2022/07/04 11:47:15;;;;;;;;;;;23.40;99.90;;;;;;5036143;28;19920;-72
2022/07/04 11:49:43;;;;;;;;;;;23.50;99.90;;;;;;5041872;28;19996;-72
2022/07/04 11:52:09;;;;;;;;;;;23.60;99.90;;;;;;5043457;28;19916;-72
2022/07/04 11:54:35;;;;;;;;;;;23.70;99.90;;;;;;5045167;28;19909;-73
2022/07/04 11:57:17;;;;;;;;;;;23.70;99.60;;;;;;5044977;28;19911;-72
2022/07/04 11:59:50;;;;;;;;;;;23.60;99.90;;;;;;5045982;28;20359;-71
2022/07/04 12:02:16;;;;;;;;;;;23.70;99.90;;;;;;5047419;28;19999;-72
2022/07/04 12:04:42;;;;;;;;;;;23.40;99.70;;;;;;5041900;28;19952;-71
2022/07/04 12:07:12;;;;;;;;;;;23.20;99.50;;;;;;5047175;28;19912;-72
2022/07/04 12:09:38;;;;;;;;;;;23.00;99.80;;;;;;5049300;28;19932;-72
2022/07/04 12:12:03;;;;;;;;;;;23.00;99.90;;;;;;5059024;28;20460;-72
2022/07/04 12:14:29;;;;;;;;;;;23.20;99.90;;;;;;5058272;28;19912;-72
2022/07/04 12:17:10;;;;;;;;;;;23.50;99.90;;;;;;5046459;28;19909;-72
2022/07/04 12:19:36;;;;;;;;;;;23.90;99.10;;;;;;5045366;28;19951;-72
2022/07/04 12:22:02;;;;;;;;;;;24.20;98.80;;;;;;5060196;28;19905;-71
2022/07/04 12:24:28;;;;;;;;;;;24.50;98.10;;;;;;5054463;28;19909;-72
2022/07/04 12:26:53;;;;;;;;;;;24.70;97.80;;;;;;5043724;28;19955;-70
2022/07/04 12:29:22;;;;;;;;;;;24.90;96.90;;;;;;5050072;28;19908;-72
2022/07/04 12:31:50;;;;;;;;;;;25.00;96.90;;;;;;5045618;28;19912;-71
2022/07/04 12:34:16;;;;;;;;;;;25.10;96.70;;;;;;5045032;28;19959;-71
2022/07/04 12:36:48;;;;;;;;;;;25.10;96.90;;;;;;5027152;28;19909;-71
2022/07/04 12:39:26;;;;;;;;;;;24.90;96.40;;;;;;5025274;28;19913;-70
2022/07/04 12:42:03;;;;;;;;;;;24.60;96.50;;;;;;5048130;28;19912;-71
2022/07/04 12:44:28;;;;;;;;;;;24.40;96.90;;;;;;5046491;28;19913;-70
2022/07/04 12:46:56;;;;;;;;;;;24.50;97.00;;;;;;5046343;28;20317;-70
2022/07/04 12:49:21;;;;;;;;;;;24.60;97.40;;;;;;5044261;28;19909;-70
2022/07/04 12:51:47;;;;;;;;;;;24.60;96.50;;;;;;5037696;28;19909;-70
2022/07/04 12:54:13;;;;;;;;;;;24.80;96.60;;;;;;5037932;28;19912;-71
2022/07/04 12:56:40;;;;;;;;;;;24.80;96.50;;;;;;5036737;28;19924;-70
2022/07/04 12:59:07;;;;;;;;;;;24.90;96.10;;;;;;5037465;28;20346;-70
2022/07/04 13:01:32;;;;;;;;;;;24.70;96.50;;;;;;5037305;28;19912;-70
2022/07/04 13:03:58;;;;;;;;;;;24.70;96.90;;;;;;5037547;28;20378;-71
2022/07/04 13:06:24;;;;;;;;;;;24.60;96.70;;;;;;5035326;28;20367;-70
2022/07/04 13:08:50;;;;;;;;;;;24.30;97.10;;;;;;5036664;28;19944;-72
2022/07/04 13:14:00;;;;;;;;;;;23.80;99.90;;;;;;5036895;28;19963;-71
2022/07/04 13:16:25;;;;;;;;;;;23.30;99.90;;;;;;5030451;28;20371;-71
2022/07/04 13:18:51;;;;;;;;;;;23.10;99.90;;;;;;5029716;28;20084;-71
2022/07/04 13:21:16;;;;;;;;;;;22.90;99.90;;;;;;5031495;28;19909;-71
2022/07/04 13:23:42;;;;;;;;;;;22.70;99.90;;;;;;5029419;28;19909;-71
2022/07/04 13:26:07;;;;;;;;;;;22.70;99.90;;;;;;5035687;28;19909;-71
2022/07/04 13:28:33;;;;;;;;;;;22.90;99.90;;;;;;5033924;28;19905;-71
2022/07/04 13:30:58;;;;;;;;;;;23.20;99.90;;;;;;5035994;28;20293;-71
2022/07/04 13:33:24;;;;;;;;;;;23.30;99.90;;;;;;5036934;28;19940;-71
2022/07/04 13:35:49;;;;;;;;;;;23.50;99.90;;;;;;5034583;28;19967;-72
2022/07/04 13:38:15;;;;;;;;;;;23.70;99.90;;;;;;5019596;28;19909;-71
2022/07/04 13:40:44;;;;;;;;;;;23.80;99.90;;;;;;5025632;28;19912;-70
2022/07/04 13:43:10;;;;;;;;;;;23.70;99.90;;;;;;5017805;28;19913;-71
2022/07/04 13:45:38;;;;;;;;;;;23.90;99.90;;;;;;5032537;28;19905;-71
2022/07/04 13:48:03;;;;;;;;;;;24.10;99.90;;;;;;5016675;28;19905;-71
2022/07/04 13:50:29;;;;;;;;;;;24.30;99.30;;;;;;5017003;28;19909;-71
2022/07/04 13:52:54;;;;;;;;;;;24.50;98.20;;;;;;5019070;28;19906;-71
2022/07/04 13:55:20;;;;;;;;;;;24.60;96.70;;;;;;5030481;28;19936;-71
2022/07/04 13:57:45;;;;;;;;;;;24.60;96.00;;;;;;5029355;28;19905;-71
2022/07/04 14:00:12;;;;;;;;;;;24.30;96.50;;;;;;5035047;28;19905;-71
2022/07/04 14:02:37;;;;;;;;;;;24.10;97.00;;;;;;5036616;28;19905;-72
2022/07/04 14:05:03;;;;;;;;;;;23.90;97.00;;;;;;5039903;28;19936;-71
2022/07/04 14:07:29;;;;;;;;;;;23.80;97.50;;;;;;5025687;28;20020;-71
2022/07/04 14:09:54;;;;;;;;;;;23.70;97.80;;;;;;5017241;28;20434;-71
2022/07/04 14:12:20;;;;;;;;;;;23.60;97.70;;;;;;5021394;28;20379;-71
2022/07/04 14:14:46;;;;;;;;;;;23.60;97.80;;;;;;5025985;28;19952;-71
2022/07/04 14:17:11;;;;;;;;;;;23.80;97.80;;;;;;5035078;28;19987;-71
2022/07/04 14:19:37;;;;;;;;;;;24.10;97.40;;;;;;5036354;28;19905;-71
2022/07/04 14:22:02;;;;;;;;;;;24.30;97.20;;;;;;5035133;28;20358;-72
2022/07/04 14:24:28;;;;;;;;;;;24.30;97.00;;;;;;5037813;28;19940;-71
2022/07/04 14:26:54;;;;;;;;;;;24.20;96.90;;;;;;5037487;28;19912;-71
2022/07/04 14:29:20;;;;;;;;;;;24.10;97.60;;;;;;5035859;28;20397;-72
2022/07/04 14:31:45;;;;;;;;;;;24.00;97.50;;;;;;5036585;28;20004;-70
2022/07/04 14:34:11;;;;;;;;;;;23.90;97.30;;;;;;5036030;28;19928;-71